Time;durP1;ratioP1;P1;durP2;ratioP2;P2;SDS_P1;SDS_P2;PMS_P1;PMS_P2;Temp;Humidity;BMP_temperature;BMP_pressure;BME280_temperature;BME280_humidity;BME280_pressure;Samples;Min_cycle;Max_cycle;Signal;HPM_P1;HPM_P2
2021/08/19 00:01:44;;;;;;;6.77;6.07;;;;;;;17.15;71.72;100409.84;5056727;28;20232;-84
2021/08/19 00:04:12;;;;;;;6.57;5.87;;;;;;;17.12;71.41;100409.28;5056991;28;20211;-84
2021/08/19 00:06:38;;;;;;;8.67;5.73;;;;;;;17.11;71.19;100407.59;5057234;28;20847;-84
2021/08/19 00:09:05;;;;;;;6.23;5.63;;;;;;;17.09;71.32;100404.19;5047266;28;20792;-84
2021/08/19 00:11:31;;;;;;;8.53;5.50;;;;;;;17.09;71.12;100404.19;5050981;28;20575;-84
2021/08/19 00:13:58;;;;;;;7.77;5.10;;;;;;;17.07;71.17;100401.63;5046898;28;20623;-84
2021/08/19 00:16:25;;;;;;;5.37;4.87;;;;;;;17.06;70.89;100399.94;5051430;28;20226;-85
2021/08/19 00:18:51;;;;;;;7.40;5.90;;;;;;;17.07;70.80;100400.78;5040624;28;20206;-86
2021/08/19 00:21:19;;;;;;;7.13;5.27;;;;;;;17.06;70.73;100393.72;5041761;28;20230;-85
2021/08/19 00:23:46;;;;;;;7.17;5.17;;;;;;;17.06;70.72;100396.41;5052509;28;20778;-86
2021/08/19 00:26:12;;;;;;;6.20;4.67;;;;;;;17.06;70.60;100393.72;5052619;28;20215;-85
2021/08/19 00:28:39;;;;;;;5.27;4.77;;;;;;;17.06;70.70;100399.94;5050013;28;20208;-84
2021/08/19 00:31:06;;;;;;;7.80;5.00;;;;;;;17.06;70.59;100401.78;5051569;28;20230;-85
2021/08/19 00:33:32;;;;;;;6.30;5.37;;;;;;;17.03;70.38;100405.59;5053727;28;20220;-85
2021/08/19 00:35:59;;;;;;;4.80;4.30;;;;;;;17.03;70.32;100408.28;5056708;28;20230;-86
2021/08/19 00:38:27;;;;;;;7.67;5.27;;;;;;;17.02;70.29;100398.53;5063313;28;20202;-85
2021/08/19 00:40:53;;;;;;;4.93;4.43;;;;;;;17.02;70.39;100403.91;5048294;28;20259;-85
2021/08/19 00:43:21;;;;;;;5.30;4.80;;;;;;;17.04;70.37;100401.94;5050507;28;20208;-85
2021/08/19 00:45:48;;;;;;;4.83;4.40;;;;;;;17.05;70.38;100403.63;5049959;28;20215;-85
2021/08/19 00:48:14;;;;;;;5.43;4.57;;;;;;;17.07;70.31;100406.16;5059738;28;20200;-85
2021/08/19 00:50:42;;;;;;;5.80;4.37;;;;;;;17.07;70.31;100398.09;5046222;28;20320;-85
2021/08/19 00:53:09;;;;;;;5.37;4.80;;;;;;;17.07;70.44;100398.09;5046638;28;20289;-85
2021/08/19 00:55:37;;;;;;;6.17;5.10;;;;;;;17.06;70.29;100397.25;5051590;28;20756;-84
2021/08/19 00:58:04;;;;;;;6.17;5.47;;;;;;;17.06;70.50;100401.78;5064994;28;20206;-85
2021/08/19 01:00:31;;;;;;;7.13;5.97;;;;;;;17.06;70.54;100391.88;5057394;28;20699;-85
2021/08/19 01:02:58;;;;;;;9.70;6.30;;;;;;;17.04;70.77;100391.16;5057516;28;20223;-84
2021/08/19 01:05:27;;;;;;;6.77;6.00;;;;;;;17.05;70.61;100398.25;5059025;28;20200;-84
2021/08/19 01:07:54;;;;;;;7.27;6.13;;;;;;;17.05;70.78;100395.56;5065126;28;20299;-83
2021/08/19 01:10:20;;;;;;;7.40;6.60;;;;;;;17.04;70.97;100388.47;5054839;28;20208;-83
2021/08/19 01:12:48;;;;;;;8.50;6.37;;;;;;;17.05;70.96;100397.41;5060451;28;20210;-83
2021/08/19 01:15:15;;;;;;;11.90;7.33;;;;;;;17.03;70.96;100397.53;5054687;28;20382;-83
2021/08/19 01:17:42;;;;;;;8.80;7.37;;;;;;;17.03;71.18;100394.84;5052856;28;20248;-83
2021/08/19 01:20:10;;;;;;;8.17;7.20;;;;;;;17.04;71.28;100401.94;5058447;28;20298;-83
2021/08/19 01:22:36;;;;;;;9.47;7.60;;;;;;;17.03;71.25;100400.22;5056345;28;20210;-84
2021/08/19 01:25:04;;;;;;;8.87;7.97;;;;;;;17.03;71.46;100400.22;5066520;28;20646;-82
2021/08/19 01:27:32;;;;;;;8.77;7.63;;;;;;;17.03;71.61;100408.28;5062620;28;20295;-84
2021/08/19 01:29:58;;;;;;;8.53;7.63;;;;;;;17.03;71.64;100402.91;5064949;28;20211;-83
2021/08/19 01:32:26;;;;;;;10.27;8.53;;;;;;;17.03;71.83;100392.16;5043963;28;20231;-83
2021/08/19 01:34:53;;;;;;;10.27;8.93;;;;;;;17.05;71.86;100397.41;5058585;28;20313;-83
2021/08/19 01:37:20;;;;;;;9.87;8.80;;;;;;;17.06;71.94;100396.41;5058326;28;20663;-84
2021/08/19 01:39:46;;;;;;;10.40;9.30;;;;;;;17.06;72.03;100399.94;5062242;28;20207;-82
2021/08/19 01:42:13;;;;;;;10.57;9.47;;;;;;;17.05;72.12;100394.69;5069983;28;20223;-84
2021/08/19 01:44:41;;;;;;;10.30;8.93;;;;;;;17.07;72.12;100390.03;5076417;28;20207;-84
2021/08/19 01:47:09;;;;;;;12.83;11.20;;;;;;;17.08;72.09;100394.41;5058330;28;20213;-85
2021/08/19 01:49:38;;;;;;;12.60;10.97;;;;;;;17.08;72.15;100391.72;5058728;28;20657;-84
2021/08/19 01:52:06;;;;;;;12.87;11.40;;;;;;;17.07;72.30;100393.56;5056318;28;20691;-84
2021/08/19 01:54:32;;;;;;;16.80;11.90;;;;;;;17.07;72.43;100390.88;5047971;28;20206;-84
2021/08/19 01:56:59;;;;;;;13.53;12.23;;;;;;;17.08;72.39;100387.19;5050631;28;20216;-83
2021/08/19 01:59:27;;;;;;;15.17;13.60;;;;;;;17.08;72.43;100386.34;5055950;28;20218;-84
2021/08/19 02:01:56;;;;;;;14.53;12.77;;;;;;;17.09;72.73;100388.03;5062775;22;20211;-70
2021/08/19 02:04:22;;;;;;;16.73;13.43;;;;;;;17.09;72.56;100383.50;5033353;28;20212;-70
2021/08/19 02:06:49;;;;;;;14.33;12.93;;;;;;;17.09;72.61;100383.50;5031298;28;20655;-70
2021/08/19 02:09:16;;;;;;;15.77;13.83;;;;;;;17.08;72.62;100379.13;5030041;28;20678;-71
2021/08/19 02:11:42;;;;;;;14.37;12.90;;;;;;;17.08;72.76;100379.13;5018770;28;20229;-70
2021/08/19 02:16:56;;;;;;;14.30;12.27;;;;;;;17.08;72.69;100380.97;4987909;28;20219;-74
2021/08/19 02:19:23;;;;;;;13.77;12.37;;;;;;;17.07;72.81;100379.28;4982388;28;20215;-74
2021/08/19 02:21:49;;;;;;;13.97;12.57;;;;;;;17.06;72.55;100377.56;4987127;28;20461;-74
2021/08/19 02:24:16;;;;;;;14.07;12.50;;;;;;;17.05;72.62;100381.25;4989355;28;20229;-74
2021/08/19 02:26:42;;;;;;;13.57;12.37;;;;;;;17.03;72.68;100378.69;4988244;28;20605;-75
2021/08/19 02:29:09;;;;;;;13.33;12.07;;;;;;;17.02;72.67;100378.88;4987943;28;20210;-74
2021/08/19 02:31:40;;;;;;;13.97;12.50;;;;;;;17.02;72.52;100376.19;4990961;28;20603;-74
2021/08/19 02:34:08;;;;;;;13.07;11.77;;;;;;;17.00;72.87;100373.63;4990918;28;20317;-74
2021/08/19 02:36:35;;;;;;;13.20;11.90;;;;;;;16.97;72.68;100366.69;4990995;28;20238;-74
2021/08/19 02:39:01;;;;;;;12.03;10.83;;;;;;;16.96;72.74;100364.16;4987942;28;20207;-73
2021/08/19 02:41:28;;;;;;;12.33;11.03;;;;;;;16.96;72.81;100369.53;4993105;28;20607;-74
2021/08/19 02:43:55;;;;;;;12.80;11.33;;;;;;;16.96;72.77;100372.22;4988907;28;20571;-73
2021/08/19 02:46:21;;;;;;;12.93;11.43;;;;;;;16.94;72.78;100364.28;4991205;28;20230;-74
2021/08/19 02:48:48;;;;;;;13.10;11.47;;;;;;;16.94;72.80;100366.13;4986548;28;20226;-74
2021/08/19 02:51:16;;;;;;;12.23;10.93;;;;;;;16.94;72.71;100353.53;4988565;28;22370;-74
2021/08/19 02:53:42;;;;;;;13.10;11.80;;;;;;;16.95;72.86;100359.75;4993185;28;20238;-73
2021/08/19 02:56:09;;;;;;;11.67;10.47;;;;;;;16.93;72.92;100357.22;4993229;28;20239;-73
2021/08/19 02:58:35;;;;;;;12.37;10.43;;;;;;;16.93;72.78;100359.06;4990170;28;20705;-74
2021/08/19 03:01:02;;;;;;;11.40;10.20;;;;;;;16.93;72.90;100364.44;4989292;28;20219;-73
2021/08/19 03:03:28;;;;;;;11.93;10.43;;;;;;;16.90;72.94;100362.03;4992425;28;20204;-74
2021/08/19 03:05:55;;;;;;;13.03;11.13;;;;;;;16.90;72.73;100356.66;4991009;28;20244;-74
2021/08/19 03:08:23;;;;;;;12.33;11.03;;;;;;;16.87;72.92;100357.78;4985395;28;20214;-73
2021/08/19 03:10:49;;;;;;;12.87;10.97;;;;;;;16.87;72.78;100357.78;4991110;28;20652;-73
2021/08/19 03:13:16;;;;;;;12.73;11.00;;;;;;;16.85;72.81;100353.53;4991876;28;20217;-74
2021/08/19 03:15:42;;;;;;;11.87;10.17;;;;;;;16.85;72.40;100358.91;4990056;28;20231;-73
2021/08/19 03:18:09;;;;;;;10.90;9.90;;;;;;;16.84;72.89;100357.25;4990931;28;20206;-74
2021/08/19 03:20:35;;;;;;;9.77;8.87;;;;;;;16.84;72.89;100346.50;4991054;28;20411;-73
2021/08/19 03:23:02;;;;;;;10.80;9.50;;;;;;;16.83;72.80;100355.56;4988778;28;20216;-73
2021/08/19 03:25:30;;;;;;;10.87;9.80;;;;;;;16.80;72.68;100351.31;4994063;28;20230;-74
2021/08/19 03:28:01;;;;;;;12.07;9.30;;;;;;;16.81;72.60;100358.38;4991420;28;20265;-74
2021/08/19 03:30:27;;;;;;;9.60;7.90;;;;;;;16.81;72.59;100357.53;4992436;28;20210;-73
2021/08/19 03:32:54;;;;;;;9.37;8.40;;;;;;;16.81;72.45;100353.00;4989619;28;20586;-73
2021/08/19 03:35:21;;;;;;;9.50;8.50;;;;;;;16.80;72.33;100361.22;4987861;28;20240;-74
2021/08/19 03:37:47;;;;;;;9.97;8.33;;;;;;;16.81;72.49;100357.53;4993124;28;20209;-74
2021/08/19 03:40:15;;;;;;;9.20;8.30;;;;;;;16.79;72.43;100354.13;4993293;28;20221;-73
2021/08/19 03:42:43;;;;;;;8.13;7.33;;;;;;;16.79;72.48;100371.13;4998162;28;20213;-74
2021/08/19 03:45:10;;;;;;;8.90;8.03;;;;;;;16.80;72.26;100355.84;4992415;28;20244;-75
2021/08/19 03:47:37;;;;;;;8.93;7.50;;;;;;;16.79;72.37;100364.91;4993448;28;20214;-74
2021/08/19 03:50:07;;;;;;;10.80;8.03;;;;;;;16.79;72.40;100357.69;4987898;28;20221;-74
2021/08/19 03:52:34;;;;;;;9.77;7.57;;;;;;;16.79;72.30;100356.81;4986331;28;20591;-71
2021/08/19 03:55:00;;;;;;;9.60;8.17;;;;;;;16.80;72.45;100366.59;4993330;28;20232;-74
2021/08/19 03:57:27;;;;;;;8.73;7.93;;;;;;;16.80;72.21;100361.22;4993374;28;20579;-73
2021/08/19 03:59:55;;;;;;;8.87;7.73;;;;;;;16.80;72.32;100359.38;4989545;28;20209;-73
2021/08/19 04:02:21;;;;;;;9.03;7.10;;;;;;;16.81;72.36;100368.28;4993297;28;20226;-73
2021/08/19 04:04:48;;;;;;;8.47;7.43;;;;;;;16.82;72.34;100370.00;4992066;28;20244;-73
2021/08/19 04:07:14;;;;;;;8.63;7.77;;;;;;;16.80;72.30;100374.66;4991615;28;20222;-73
2021/08/19 04:09:41;;;;;;;9.07;8.10;;;;;;;16.80;72.29;100371.97;4981699;28;20690;-74
2021/08/19 04:12:08;;;;;;;8.17;7.17;;;;;;;16.79;72.33;100356.81;4984405;28;20205;-73
2021/08/19 04:14:34;;;;;;;9.17;7.67;;;;;;;16.80;72.36;100361.22;4984296;28;20776;-73
2021/08/19 04:17:02;;;;;;;8.60;7.80;;;;;;;16.81;72.30;100362.91;4984125;28;20237;-73
2021/08/19 04:19:29;;;;;;;9.80;7.70;;;;;;;16.81;72.32;100362.91;4983425;28;20215;-72
2021/08/19 04:21:55;;;;;;;8.70;7.87;;;;;;;16.81;72.39;100379.91;4980952;28;20206;-72
2021/08/19 04:24:22;;;;;;;10.43;8.20;;;;;;;16.80;72.38;100380.03;4986484;28;20207;-73
2021/08/19 04:26:48;;;;;;;10.00;8.43;;;;;;;16.81;72.41;100376.34;4978232;28;20205;-72
2021/08/19 04:29:15;;;;;;;10.43;8.23;;;;;;;16.83;72.42;100379.75;4987450;28;20212;-72
2021/08/19 04:31:41;;;;;;;10.80;8.07;;;;;;;16.83;72.48;100379.75;4990018;28;20210;-73
2021/08/19 04:34:09;;;;;;;10.30;7.77;;;;;;;16.82;72.44;100376.22;4989570;28;20201;-74
2021/08/19 04:36:36;;;;;;;11.00;8.60;;;;;;;16.81;72.47;100376.34;4988960;28;20699;-72
2021/08/19 04:39:02;;;;;;;8.83;7.83;;;;;;;16.82;72.62;100383.44;4989845;28;20202;-72
2021/08/19 04:41:30;;;;;;;9.50;8.50;;;;;;;16.82;72.61;100381.59;4986543;28;20379;-75
2021/08/19 04:43:56;;;;;;;10.30;9.23;;;;;;;16.82;72.69;100386.97;4988033;28;20228;-73
2021/08/19 04:46:23;;;;;;;10.00;8.87;;;;;;;16.81;72.77;100382.59;4989001;28;20240;-72
2021/08/19 04:48:50;;;;;;;13.03;10.07;;;;;;;16.82;73.00;100388.81;4990416;28;20214;-73
2021/08/19 04:51:18;;;;;;;11.70;9.40;;;;;;;16.82;73.16;100391.50;4988887;28;20206;-73
2021/08/19 04:53:44;;;;;;;11.80;9.63;;;;;;;16.82;73.15;100378.91;4995322;28;20216;-73
2021/08/19 04:56:11;;;;;;;10.30;8.60;;;;;;;16.84;73.26;100389.53;4993215;28;20237;-72
2021/08/19 04:58:38;;;;;;;10.50;9.50;;;;;;;16.85;73.21;100391.19;4992447;28;20217;-73
2021/08/19 05:01:04;;;;;;;10.80;9.77;;;;;;;16.86;73.42;100392.91;4992850;28;20205;-74
2021/08/19 05:03:31;;;;;;;11.70;10.07;;;;;;;16.87;73.50;100391.91;4991400;28;20207;-74
2021/08/19 05:05:57;;;;;;;10.63;9.63;;;;;;;16.87;73.71;100391.91;4991587;28;20225;-74
2021/08/19 05:08:25;;;;;;;13.17;10.30;;;;;;;16.88;73.64;100390.91;4993158;28;20206;-75
2021/08/19 05:10:52;;;;;;;11.50;10.30;;;;;;;16.89;73.67;100392.63;4992476;28;20585;-74
2021/08/19 05:13:18;;;;;;;10.77;9.67;;;;;;;16.89;73.83;100389.91;4993035;28;20213;-74
2021/08/19 05:15:45;;;;;;;11.33;10.10;;;;;;;16.90;73.73;100388.94;4994080;28;20241;-74
2021/08/19 05:18:11;;;;;;;11.57;10.37;;;;;;;16.92;73.91;100390.50;4992060;28;20675;-74
2021/08/19 05:20:38;;;;;;;12.87;10.33;;;;;;;16.94;73.75;100384.97;4993256;28;20205;-74
2021/08/19 05:23:06;;;;;;;12.50;10.37;;;;;;;16.95;73.81;100395.59;4993425;28;20225;-74
2021/08/19 05:25:34;;;;;;;11.27;10.10;;;;;;;16.97;73.81;100390.06;4993274;28;20311;-74
2021/08/19 05:28:01;;;;;;;12.17;10.40;;;;;;;16.98;73.83;100387.22;4993140;28;20207;-74
2021/08/19 05:30:27;;;;;;;11.93;10.37;;;;;;;16.99;73.94;100404.22;4990592;28;20687;-74
2021/08/19 05:32:54;;;;;;;14.13;10.30;;;;;;;17.00;74.02;100404.09;4992948;28;20204;-74
2021/08/19 05:35:20;;;;;;;12.97;10.07;;;;;;;17.03;73.83;100405.59;4995590;28;20226;-74
2021/08/19 05:37:46;;;;;;;12.00;10.90;;;;;;;17.04;73.70;100401.06;4993252;28;20229;-74
2021/08/19 05:40:14;;;;;;;12.37;11.13;;;;;;;17.04;73.74;100401.94;4992395;28;20228;-74
2021/08/19 05:42:41;;;;;;;12.50;10.57;;;;;;;17.06;73.87;100397.25;4987013;28;20208;-74
2021/08/19 05:45:09;;;;;;;11.50;10.30;;;;;;;17.04;73.83;100396.53;4995627;28;20234;-74
2021/08/19 05:47:36;;;;;;;11.80;10.47;;;;;;;17.08;73.79;100405.19;4992353;28;20201;-74
2021/08/19 05:50:09;;;;;;;12.20;11.00;;;;;;;17.09;73.82;100405.03;4993108;28;20218;-74
2021/08/19 05:52:36;;;;;;;11.30;10.10;;;;;;;17.13;73.68;100411.00;4992075;28;20294;-74
2021/08/19 05:55:02;;;;;;;12.23;10.93;;;;;;;17.14;73.70;100412.69;4992756;28;20242;-74
2021/08/19 05:57:29;;;;;;;11.53;10.43;;;;;;;17.17;73.59;100404.34;4992352;28;20604;-74
2021/08/19 05:59:57;;;;;;;12.37;11.17;;;;;;;17.20;73.71;100402.16;4993157;28;20211;-74
2021/08/19 06:02:24;;;;;;;12.83;11.53;;;;;;;17.23;73.60;100412.66;4993180;28;20214;-74
2021/08/19 06:04:50;;;;;;;13.57;10.93;;;;;;;17.28;73.67;100421.16;4992795;28;20241;-74
2021/08/19 06:07:17;;;;;;;12.63;11.33;;;;;;;17.33;73.61;100412.63;4990273;28;20694;-74
2021/08/19 06:09:43;;;;;;;13.43;11.33;;;;;;;17.36;73.53;100415.03;4990895;28;20210;-75
2021/08/19 06:12:10;;;;;;;12.83;11.57;;;;;;;17.37;73.38;100423.97;4995706;28;20203;-74
2021/08/19 06:14:36;;;;;;;12.67;10.63;;;;;;;17.40;73.31;100423.66;4996323;28;20208;-75
2021/08/19 06:17:05;;;;;;;12.97;11.27;;;;;;;17.41;73.45;100428.91;4993441;28;20226;-74
2021/08/19 06:19:31;;;;;;;14.10;12.10;;;;;;;17.42;73.43;100429.75;4994634;28;20633;-73
2021/08/19 06:21:58;;;;;;;13.00;11.67;;;;;;;17.43;73.28;100434.97;4997375;28;20628;-74
2021/08/19 06:24:24;;;;;;;12.70;11.13;;;;;;;17.44;73.17;100439.38;4996704;28;20561;-73
2021/08/19 06:26:51;;;;;;;14.17;11.47;;;;;;;17.45;73.08;100437.53;4999939;28;20220;-73
2021/08/19 06:29:17;;;;;;;13.63;11.67;;;;;;;17.46;72.98;100436.53;5001532;28;20686;-73
2021/08/19 06:31:44;;;;;;;12.73;10.90;;;;;;;17.48;73.17;100439.94;4995851;28;20207;-73
2021/08/19 06:34:12;;;;;;;12.27;10.97;;;;;;;17.50;73.00;100441.50;4995326;28;21468;-73
2021/08/19 06:36:38;;;;;;;14.80;10.97;;;;;;;17.52;73.00;100442.19;4992600;28;20238;-73
2021/08/19 06:39:05;;;;;;;15.17;11.37;;;;;;;17.53;72.88;100443.91;4993916;28;20681;-73
2021/08/19 06:41:32;;;;;;;13.87;10.43;;;;;;;17.54;72.75;100444.75;4999612;28;20210;-73
2021/08/19 06:43:58;;;;;;;11.93;10.57;;;;;;;17.54;72.72;100445.59;4993139;28;20590;-74
2021/08/19 06:46:25;;;;;;;12.07;10.57;;;;;;;17.56;72.71;100445.41;5002955;28;21683;-73
2021/08/19 06:48:51;;;;;;;12.90;11.50;;;;;;;17.56;72.67;100443.56;4991687;28;20206;-73
2021/08/19 06:51:19;;;;;;;12.20;11.00;;;;;;;17.57;72.51;100444.44;4996299;28;20294;-73
2021/08/19 06:53:45;;;;;;;13.33;10.70;;;;;;;17.55;72.37;100441.06;4998176;28;20224;-73
2021/08/19 06:56:12;;;;;;;12.07;10.33;;;;;;;17.58;72.37;100444.28;4999081;28;20227;-74
2021/08/19 06:58:38;;;;;;;12.23;10.80;;;;;;;17.59;72.45;100445.13;4994393;28;20208;-74
2021/08/19 07:01:05;;;;;;;13.00;10.40;;;;;;;17.60;72.23;100447.69;4995748;28;20219;-75
2021/08/19 07:03:31;;;;;;;13.50;11.03;;;;;;;17.63;72.42;100442.00;5000017;28;20597;-73
2021/08/19 07:05:58;;;;;;;10.80;9.73;;;;;;;17.65;72.24;100439.19;4998174;28;20237;-73
2021/08/19 07:08:26;;;;;;;12.27;11.07;;;;;;;17.65;72.35;100440.06;4997741;28;20691;-74
2021/08/19 07:10:52;;;;;;;12.17;10.37;;;;;;;17.67;72.23;100443.44;4995801;28;20214;-74
2021/08/19 07:13:19;;;;;;;11.60;10.00;;;;;;;17.69;72.12;100440.59;4992461;28;20208;-73
2021/08/19 07:15:46;;;;;;;10.20;9.13;;;;;;;17.72;72.13;100444.84;4993998;28;20246;-73
2021/08/19 07:18:13;;;;;;;11.50;9.63;;;;;;;17.74;71.87;100456.31;4990829;28;20250;-73
2021/08/19 07:20:39;;;;;;;11.23;9.67;;;;;;;17.75;72.05;100452.63;5003358;28;20600;-74
2021/08/19 07:23:06;;;;;;;12.47;10.37;;;;;;;17.78;71.91;100450.47;4998316;28;20208;-73
2021/08/19 07:25:34;;;;;;;11.37;9.70;;;;;;;17.80;71.86;100459.25;4998071;28;20282;-74
2021/08/19 07:28:01;;;;;;;11.03;9.83;;;;;;;17.83;71.79;100461.66;4997754;28;20208;-74
2021/08/19 07:30:28;;;;;;;11.90;10.33;;;;;;;17.83;71.49;100466.22;4999881;28;20217;-74
2021/08/19 07:32:54;;;;;;;10.37;9.33;;;;;;;17.84;71.46;100467.91;4998011;28;20213;-74
2021/08/19 07:35:21;;;;;;;11.77;10.57;;;;;;;17.84;71.35;100471.44;4995500;28;20246;-73
2021/08/19 07:37:49;;;;;;;11.50;10.03;;;;;;;17.84;71.20;100467.91;4997234;28;20329;-73
2021/08/19 07:40:17;;;;;;;12.97;10.57;;;;;;;17.81;70.95;100471.75;4992004;28;20259;-74
2021/08/19 07:42:44;;;;;;;13.57;10.50;;;;;;;17.77;70.73;100475.72;4996118;28;20669;-74
2021/08/19 07:45:12;;;;;;;12.03;10.27;;;;;;;17.77;70.95;100480.25;4994765;28;20230;-73
2021/08/19 07:47:38;;;;;;;11.97;10.47;;;;;;;17.77;71.00;100475.72;4993367;28;20209;-73
2021/08/19 07:50:06;;;;;;;13.37;11.43;;;;;;;17.79;70.94;100479.13;4990733;28;20217;-73
2021/08/19 07:52:32;;;;;;;11.30;10.20;;;;;;;17.83;70.91;100469.75;4998058;28;20214;-74
2021/08/19 07:54:59;;;;;;;12.13;10.90;;;;;;;17.85;70.74;100472.31;4997468;28;20233;-73
2021/08/19 07:57:26;;;;;;;12.83;11.60;;;;;;;17.86;70.60;100482.94;4994243;28;20720;-73
2021/08/19 07:59:53;;;;;;;12.37;10.80;;;;;;;17.89;70.55;100481.78;5001467;28;20202;-73
2021/08/19 08:02:20;;;;;;;12.53;11.07;;;;;;;17.93;70.56;100480.47;4998691;28;20234;-72
2021/08/19 08:04:46;;;;;;;12.40;10.83;;;;;;;17.95;70.27;100484.72;4993285;28;20724;-73
2021/08/19 08:07:13;;;;;;;15.07;10.87;;;;;;;17.96;70.34;100491.81;5000380;28;20209;-77
2021/08/19 08:09:40;;;;;;;13.83;11.73;;;;;;;18.00;70.45;100495.91;4997370;28;20207;-77
2021/08/19 08:12:07;;;;;;;12.13;10.90;;;;;;;18.04;70.88;100493.78;4997101;28;20218;-77
2021/08/19 08:14:33;;;;;;;14.60;12.13;;;;;;;18.10;71.19;100492.31;4997567;28;20672;-78
2021/08/19 08:19:31;;;;;;;12.30;11.03;;;;;;;18.15;71.50;100496.25;5006829;28;20265;-74
2021/08/19 08:21:57;;;;;;;13.77;11.77;;;;;;;18.18;71.49;100495.97;5008113;28;20211;-77
2021/08/19 08:24:24;;;;;;;12.30;11.10;;;;;;;18.19;71.54;100502.22;5009606;28;20208;-75
2021/08/19 08:26:50;;;;;;;15.53;13.03;;;;;;;18.23;71.97;100496.38;5008932;28;20234;-75
2021/08/19 08:29:19;;;;;;;13.07;11.67;;;;;;;18.26;71.83;100500.63;5004610;28;20204;-75
2021/08/19 08:31:45;;;;;;;13.10;11.70;;;;;;;18.28;71.65;100504.84;5000089;28;20256;-76
2021/08/19 08:34:12;;;;;;;12.13;10.97;;;;;;;18.28;71.53;100493.22;4997937;28;20212;-70
2021/08/19 08:36:40;;;;;;;12.93;11.37;;;;;;;18.30;71.41;100494.75;4990558;28;20250;-70
2021/08/19 08:39:07;;;;;;;13.67;12.27;;;;;;;18.34;71.28;100498.00;4993790;28;20211;-70
2021/08/19 08:41:34;;;;;;;12.47;11.03;;;;;;;18.36;71.08;100502.25;4997232;28;20563;-70
2021/08/19 08:44:01;;;;;;;11.93;10.40;;;;;;;18.41;70.83;100501.81;4994410;28;20224;-71
2021/08/19 08:46:28;;;;;;;11.43;10.13;;;;;;;18.44;70.37;100488.03;4991651;28;20229;-70
2021/08/19 08:48:55;;;;;;;10.40;9.17;;;;;;;18.48;69.86;100502.88;4995550;28;20741;-70
2021/08/19 08:51:22;;;;;;;11.83;10.73;;;;;;;18.51;69.46;100494.50;4996357;28;20204;-70
2021/08/19 08:53:51;;;;;;;11.80;10.63;;;;;;;18.58;69.19;100497.44;4995983;28;20205;-70
2021/08/19 08:56:18;;;;;;;11.70;10.27;;;;;;;18.64;69.16;100499.53;4994765;28;20248;-70
2021/08/19 08:58:44;;;;;;;12.20;10.33;;;;;;;18.71;68.87;100506.03;4995131;28;20827;-71
2021/08/19 09:01:11;;;;;;;10.53;9.53;;;;;;;18.78;68.51;100519.78;4996520;28;20208;-70
2021/08/19 09:03:37;;;;;;;10.93;9.83;;;;;;;18.78;67.97;100514.38;4994307;28;20213;-70
2021/08/19 09:06:04;;;;;;;9.83;8.83;;;;;;;18.81;67.96;100514.09;4996195;28;20232;-71
2021/08/19 09:08:30;;;;;;;9.30;8.30;;;;;;;18.83;67.93;100512.06;4997097;28;20207;-70
2021/08/19 09:11:00;;;;;;;9.07;8.17;;;;;;;18.86;67.89;100503.66;4990747;28;20579;-70
2021/08/19 09:13:29;;;;;;;10.13;7.93;;;;;;;18.91;67.63;100510.28;4997026;28;20224;-70
2021/08/19 09:16:12;;;;;;;10.70;8.37;;;;;;;18.97;67.53;100515.09;4990698;28;20239;-70
2021/08/19 09:18:39;;;;;;;8.97;7.80;;;;;;;19.01;67.19;100513.75;4989806;28;20232;-70
2021/08/19 09:21:18;;;;;;;9.50;8.50;;;;;;;19.06;66.92;100513.28;4993423;28;20682;-70
2021/08/19 09:23:44;;;;;;;8.40;7.60;;;;;;;19.09;66.69;100515.69;4997681;28;20240;-71
2021/08/19 09:26:12;;;;;;;8.80;8.00;;;;;;;19.14;66.64;100520.63;5002825;28;20220;-70
2021/08/19 09:28:39;;;;;;;8.40;7.47;;;;;;;19.19;66.38;100521.00;5000081;28;20584;-71
2021/08/19 09:31:07;;;;;;;9.67;7.83;;;;;;;19.21;66.21;100522.53;5004790;28;20224;-70
2021/08/19 09:33:36;;;;;;;9.70;8.70;;;;;;;19.21;66.00;100519.84;5007804;28;20212;-71
2021/08/19 09:36:06;;;;;;;9.20;8.30;;;;;;;19.20;65.91;100523.53;5008058;28;20227;-70
2021/08/19 09:38:37;;;;;;;9.57;8.60;;;;;;;19.16;66.11;100511.38;5007462;28;20662;-71
2021/08/19 09:41:11;;;;;;;9.97;8.97;;;;;;;19.16;66.25;100519.47;5006071;28;20206;-71
2021/08/19 09:43:43;;;;;;;9.60;8.70;;;;;;;19.17;66.56;100523.03;4998117;28;20240;-70
2021/08/19 09:46:11;;;;;;;10.90;9.80;;;;;;;19.18;66.82;100517.44;4998542;28;20729;-70
2021/08/19 09:48:38;;;;;;;10.53;8.63;;;;;;;19.21;66.93;100522.53;4998709;28;20214;-71
2021/08/19 09:51:13;;;;;;;9.33;8.43;;;;;;;19.22;67.02;100524.22;4999784;28;20206;-70
2021/08/19 09:53:43;;;;;;;10.23;9.07;;;;;;;19.25;67.20;100517.69;5001236;28;20210;-70
2021/08/19 09:56:12;;;;;;;10.03;9.03;;;;;;;19.27;67.29;100513.81;5003677;28;20224;-70
2021/08/19 09:58:39;;;;;;;10.73;9.63;;;;;;;19.28;67.27;100512.81;5005827;28;20287;-71
2021/08/19 10:01:07;;;;;;;10.83;9.73;;;;;;;19.29;67.35;100514.50;5010829;28;20224;-71
2021/08/19 10:03:33;;;;;;;10.60;9.27;;;;;;;19.30;67.47;100510.81;5004163;28;20219;-70
2021/08/19 10:06:00;;;;;;;10.70;9.47;;;;;;;19.34;67.46;100511.34;5001825;28;20682;-70
2021/08/19 10:08:26;;;;;;;10.47;9.47;;;;;;;19.37;67.76;100509.16;5003193;28;20200;-70
2021/08/19 10:10:55;;;;;;;10.50;9.40;;;;;;;19.40;67.79;100511.56;5002075;28;20209;-71
2021/08/19 10:13:22;;;;;;;10.67;9.50;;;;;;;19.43;67.88;100508.53;5003240;28;20251;-70
2021/08/19 10:15:50;;;;;;;10.03;9.07;;;;;;;19.48;67.80;100508.06;4997228;28;20225;-71
2021/08/19 10:18:23;;;;;;;10.87;9.33;;;;;;;19.53;68.19;100507.63;4999608;28;20704;-71
2021/08/19 10:20:56;;;;;;;11.70;10.40;;;;;;;19.57;67.88;100511.69;4997728;28;20233;-70
2021/08/19 10:23:24;;;;;;;12.37;11.07;;;;;;;19.58;68.00;100506.16;4999148;28;20209;-71
2021/08/19 10:26:01;;;;;;;11.93;10.73;;;;;;;19.60;67.76;100506.84;5000587;28;20230;-71
2021/08/19 10:28:28;;;;;;;13.03;11.37;;;;;;;19.62;67.79;100504.81;5000521;28;20198;-70
2021/08/19 10:30:58;;;;;;;12.60;10.73;;;;;;;19.66;67.70;100502.66;4998201;28;20206;-71
2021/08/19 10:33:44;;;;;;;11.60;10.50;;;;;;;19.67;67.81;100497.09;4998265;28;20270;-71
2021/08/19 10:36:54;;;;;;;12.53;11.13;;;;;;;19.66;67.73;100492.69;4995611;28;20265;-70
2021/08/19 10:39:36;;;;;;;13.33;11.97;;;;;;;19.63;67.70;100503.81;4993191;28;20304;-70
2021/08/19 10:42:03;;;;;;;12.93;11.57;;;;;;;19.61;67.99;100505.81;5001197;28;20213;-70
2021/08/19 10:44:33;;;;;;;13.80;11.77;;;;;;;19.60;68.02;100498.72;4997715;28;20215;-70
2021/08/19 10:46:59;;;;;;;13.47;12.07;;;;;;;19.59;68.21;100499.72;4995158;28;20247;-71
2021/08/19 10:49:38;;;;;;;14.50;12.97;;;;;;;19.57;68.25;100499.03;4995546;28;20297;-70
2021/08/19 10:52:30;;;;;;;14.07;12.57;;;;;;;19.56;68.36;100494.63;4998032;28;20203;-71
2021/08/19 10:55:12;;;;;;;16.70;13.03;;;;;;;19.57;68.14;100495.50;5007064;28;20691;-70
2021/08/19 10:57:50;;;;;;;13.33;11.93;;;;;;;19.54;68.57;100503.91;5010543;28;20773;-70
2021/08/19 11:00:17;;;;;;;14.87;13.37;;;;;;;19.53;68.89;100504.91;5011701;28;20201;-70
2021/08/19 11:02:45;;;;;;;17.50;14.27;;;;;;;19.50;69.18;100506.09;4997482;28;20217;-70
2021/08/19 11:05:14;;;;;;;17.03;14.03;;;;;;;19.48;69.63;100499.97;4999096;28;20204;-71
2021/08/19 11:07:48;;;;;;;17.53;14.77;;;;;;;19.47;69.69;100500.97;4997079;28;20211;-71
2021/08/19 11:10:23;;;;;;;18.87;15.43;;;;;;;19.45;70.38;100507.53;4996040;28;20213;-70
2021/08/19 11:12:50;;;;;;;21.17;16.53;;;;;;;19.43;70.72;100513.09;4997676;28;20204;-70
2021/08/19 11:15:17;;;;;;;19.13;17.13;;;;;;;19.40;71.27;100506.16;5002472;28;20229;-71
2021/08/19 11:17:52;;;;;;;17.83;16.07;;;;;;;19.40;71.56;100511.56;4999493;28;20710;-70
2021/08/19 11:20:25;;;;;;;18.57;15.93;;;;;;;19.37;71.70;100511.84;5008198;28;20205;-70
2021/08/19 11:23:06;;;;;;;17.83;15.73;;;;;;;19.32;71.80;100513.34;5003856;28;20216;-70